x

Halifax Harbour (44258) Wave Buoy

9:00am - Wed 1st Oct 2014 All times are EDT. -4 hours from GMT.

  • Sig Wave height 2.6ft
  • Peak Period 7s
  • Wind
    16mph, 18mph gusts
  • Air Temp 59°f
  • Sea Pressure 1019.3mb
  • Halifax Harbour
  • Halifax Harbour

More Historic Weather Station data

Upgrade to MSW Pro to gain access to the past 30 days of data for over 8000 Wavebouys and Weather Stations around the globe.

Join Pro

Comparision Forecast

View Surf forecast
   
Wed 10/01 9:00am 2.5ft 7s 16 18 mph 1019.3mb 59f
8:00am 2.5ft 14s 13 16 mph 1019.1mb 59f
7:00am 3ft 7s 11 13 mph 1018.6mb 58f
6:00am 2.5ft 7s 9 11 mph 1018.4mb 58f
5:00am 2.5ft 7s 9 11 mph 1017.7mb 57f
4:00am 2.5ft 7s 16 18 mph 1017.3mb 57f
3:00am 2.5ft 14s 11 13 mph 1017.2mb 58f
2:00am 2.5ft 14s 13
mph
1017.8mb 58f
1:00am 2.5ft 6s 11 13 mph 1018mb 59f
12:00am 2.5ft 14s 11 13 mph 1017.7mb 58f
Tue 09/30 11:00pm 3ft 7s 11 13 mph 1018.1mb 58f
10:00pm 2.5ft 6s 9 11 mph 1018mb 59f
9:00pm 2.5ft 6s 11
mph
1017.9mb 60f
8:00pm  -   -  9
mph
1017.8mb 60f
6:00pm 2.5ft 5s 13 16 mph 1017.1mb 59f
5:00pm 3ft 5s 13
mph
1017.3mb 59f
4:00pm 3.5ft 6s 11 13 mph 1017.5mb 59f
3:00pm 3.5ft 6s 11 13 mph 1017.5mb 59f
2:00pm 3.5ft 6s 13 16 mph 1017.6mb 60f
1:00pm 3.5ft 6s 13 16 mph 1018mb 59f
10:00am 4.5ft 4s 18 20 mph 1018.5mb 58f
9:00am 4.5ft 5s 18 22 mph 1018.9mb 58f
8:00am 4.5ft 6s 18 20 mph 1018.6mb 58f
7:00am 4.5ft 6s 18 20 mph 1019mb 57f
6:00am 4.5ft 7s 18 22 mph 1018.6mb 57f
5:00am 5ft 7s 20 25 mph 1018.3mb 56f
4:00am  -   -  18
mph
1018.7mb 55f
3:00am 6ft 7s 20 22 mph 1018.7mb 54f
2:00am 6ft 8s 20 25 mph 1019.3mb 53f
1:00am 6.5ft 6s 22 25 mph 1019.3mb 54f
Mon 09/29 11:00pm 7ft 6s 25 29 mph 1020mb 55f
10:00pm 5.5ft 6s 25
mph
1020.6mb 55f
9:00pm 4.5ft 5s 20 25 mph 1021.4mb 55f
8:00pm 4.5ft 5s 20 25 mph 1021.2mb 55f
7:00pm 4.5ft 5s 22 25 mph 1020.6mb 56f
6:00pm 4.5ft 5s 20 25 mph 1020.2mb 58f
5:00pm 4ft 5s 20 25 mph 1019.6mb 59f
4:00pm 3.5ft 4s 20 22 mph 1019.3mb 59f
2:00pm 2ft 15s 16 20 mph 1018.6mb 60f
1:00pm 2ft 3s 13 16 mph 1018.2mb 61f
12:00pm 2.5ft 4s 16 20 mph 1018mb 59f
11:00am 2.5ft 3s 20 22 mph 1017.5mb 57f
10:00am 2.5ft 4s 22 25 mph 1016.9mb 59f
9:00am 2.5ft 5s 7 9 mph 1016.3mb 59f
8:00am 3ft 5s 4 7 mph 1015.4mb 58f
7:00am 2.5ft 5s 4
mph
1014.9mb 58f
6:00am 2.5ft 5s 11 13 mph 1014mb 58f
5:00am 2.5ft 5s 13 18 mph 1013.2mb 58f
4:00am 2.5ft 5s 13 16 mph 1013.1mb 59f
3:00am 2.5ft 5s 11 13 mph 1013.2mb 59f
2:00am 2.5ft 5s 4 7 mph 1013.9mb 58f
1:00am 3ft 5s 9 11 mph 1014mb 58f
12:00am 3.5ft 5s 9 11 mph 1014.4mb 59f
Sun 09/28 11:00pm 4ft 5s 13 16 mph 1014.3mb 59f
10:00pm 4ft 6s 11 16 mph 1014.6mb 60f
9:00pm 4.5ft 5s 16 18 mph 1014.5mb 60f
8:00pm 4.5ft 5s 13 16 mph 1014.6mb 60f
6:00pm 3.5ft 4s 18 20 mph 1014.2mb 61f
5:00pm 3.5ft 4s 11 13 mph 1014.6mb 61f
4:00pm 2.5ft 4s 13 16 mph 1014.8mb 62f
3:00pm 2ft 8s 11 13 mph 1015.6mb 61f
2:00pm 2ft 8s 11
mph
1016.5mb 60f
1:00pm 2ft 8s 16 18 mph 1016.8mb 61f
12:00pm 2ft 8s 13 16 mph 1017.8mb 60f
11:00am 1.6ft 8s 11 16 mph 1018.6mb 60f
10:00am 1.6ft 9s 11 16 mph 1019.4mb 60f
9:00am 1.6ft 7s 9
mph
1019.7mb 58f
8:00am 1.6ft 8s 9 11 mph 1019.8mb 58f
7:00am 1.6ft 8s 9
mph
1020mb 58f
6:00am 1.6ft 8s 2 4 mph 1020.3mb 56f
5:00am 2ft 8s 4
mph
1019.9mb 56f
4:00am 2ft 8s 4
mph
1020.2mb 56f
3:00am 2ft 7s 2 4 mph 1020.4mb 57f
2:00am 2ft 7s 4
mph
1020.9mb 58f
1:00am 2ft 7s 4 7 mph 1020.9mb 61f
12:00am 2ft 7s 4 7 mph 1020.6mb 60f
Sat 09/27 11:00pm 1.6ft 8s 4
mph
1020.4mb 59f
10:00pm 2ft 7s 4 7 mph 1020.5mb 59f
9:00pm 2ft 8s 7
mph
1020.1mb 59f
8:00pm 2ft 7s 4 9 mph 1020mb 62f
7:00pm 2.5ft 8s 4 7 mph 1019.6mb 60f
6:00pm 2ft 8s 13
mph
1018.7mb 62f
5:00pm 2ft 8s 9
mph
1018.2mb 64f
4:00pm 2ft 7s 13
mph
1017.4mb 64f
3:00pm 2ft 7s 11 16 mph 1016.7mb 66f